Torrance, CA (90502)

8:00 AM PDT on October 23, 2014 (GMT -0700)
American Honda Motor Co., Inc. | Change Station
CLOSE
Current Station
Personal Weather Station
Location: Torrance, CA
Elevation: 75 ft
Nearby Weather Stations

Elev 75 ft 33.84 °N, 118.31 °W | Updated 7 seconds ago

Clear
Clear
64.9 °F
Feels Like 64.9 °F
N
0.0
Wind Variable Wind from NE
Gusts 1.0 mph

Today
High -- | Low -- °F
--% Chance of Precip.
Yesterday
High -- | Low -- °F
Precip. -- in
7:04 AM 6:09 PM
Waning Crescent, 0% visible
Pressure 29.98 in
Visibility 10.0 miles
Clouds Few 20000 ft
Dew Point 60 °F
Humidity 83%
Rainfall 0.00 in
Snow Depth Not available.
UV 0 out of 12
Pollen 3.70 out of 12
Air Quality Not available.
Flu Activity Sporadic
METAR KTOA 231450Z 00000KT 10SM FEW200 17/14 A2998

More Conditions Fewer Conditions

Pressure 29.98 in
Visibility 10.0 miles
Clouds Few 20000 ft
Dew Point 60 °F
Humidity 83%
Rainfall 0.00 in
Snow Depth Not available.
UV 0 out of 12
Pollen 3.70 out of 12
Air Quality Not available.
Flu Activity Sporadic
METAR KTOA 231450Z 00000KT 10SM FEW200 17/14 A2998

More Conditions Fewer Conditions

10-Day Weather Forecast

Almanac

Astronomy

Oct. 23, 2014 Rise Set
Actual Time 7:04 AM PDT 6:09 PM PDT
Civil Twilight 6:39 AM PDT 6:35 PM PDT
Nautical Twilight 6:10 AM PDT 7:04 PM PDT
Astronomical Twilight 5:41 AM PDT 7:33 PM PDT
Moon 6:49 AM PDT 6:14 PM PDT
Length of Visible Light 11h 55m
Length of Day
11h 05m
Tomorrow will be 1m 57s shorter.
Waning Crescent, 0% of the Moon is Illuminated
Today
Waning Crescent
Oct 23
New
Oct 30
First Quarter
Nov 6
Full
Nov 14
Last Quarter

Today's Extremes

State Highs State Lows

Community

WunderPhotos

Upload Photos

1,764,277 photos uploaded!

WunderBlogs® & News

Nearby

Air Quality

  Air Quality AQ Index Pollutant
Thursday Good
PM10
Thursday Good
OZONE
Thursday Good
CO
Thursday Good
NO2

Snow Depth

Station Depth Elevation
Virginia Lakes Ridge 0 in 9200 ft
Leavitt Lake 1 in 9400 ft
Sonora Pass 0 in 8800 ft
Leavitt Meadows 1 in 7200 ft
Summit Meadow 1 in 9122 ft

Earthquake Activity

City Distance Mag. Time & Date
Solvang, California 114 miles 2.6 5:35 PM PDT
2014-10-22
Minimum magnitude displayed is 2.5.

Coastal Water Temperatures

Place Temperature
Santa Monica Pier 69.1 °F
Los Angeles, CA 69.1 °F
La Jolla, CA 70.0 °F

Nearby Weather Stations